Time;durP1;ratioP1;P1;durP2;ratioP2;P2;SDS_P1;SDS_P2;PMS_P1;PMS_P2;Temp;Humidity;BMP_temperature;BMP_pressure;BME280_temperature;BME280_humidity;BME280_pressure;Samples;Min_cycle;Max_cycle;Signal;HPM_P1;HPM_P2
2022/10/24 00:02:23;;;;;;;12.25;3.83;;;;;;;14.05;100.00;100268.31;5068841;28;20043;-67
2022/10/24 00:04:48;;;;;;;8.27;3.28;;;;;;;14.02;100.00;100264.88;5068464;28;20040;-68
2022/10/24 00:07:14;;;;;;;9.10;3.83;;;;;;;14.02;100.00;100264.03;5067070;28;20029;-62
2022/10/24 00:09:39;;;;;;;10.40;3.67;;;;;;;14.07;100.00;100261.09;5067546;28;20025;-65
2022/10/24 00:12:05;;;;;;;9.63;4.00;;;;;;;14.16;100.00;100271.19;5066837;28;20032;-63
2022/10/24 00:14:30;;;;;;;10.30;3.80;;;;;;;14.21;100.00;100265.63;5067880;28;20031;-62
2022/10/24 00:16:56;;;;;;;16.33;4.18;;;;;;;14.28;100.00;100281.06;5068105;28;20025;-66
2022/10/24 00:19:21;;;;;;;13.15;3.85;;;;;;;14.39;100.00;100267.16;5068544;28;20032;-66
2022/10/24 00:21:47;;;;;;;13.43;3.75;;;;;;;14.43;100.00;100262.53;5068741;28;20021;-65
2022/10/24 00:24:13;;;;;;;11.82;3.88;;;;;;;14.52;100.00;100256.69;5067903;28;20033;-65
2022/10/24 00:26:38;;;;;;;9.02;3.75;;;;;;;14.54;100.00;100248.63;5051160;28;20413;-63
2022/10/24 00:29:04;;;;;;;10.10;4.00;;;;;;;14.58;100.00;100266.09;5050825;28;20032;-65
2022/10/24 00:31:29;;;;;;;17.33;3.78;;;;;;;14.61;100.00;100250.00;5069603;28;20066;-63
2022/10/24 00:33:58;;;;;;;9.18;3.58;;;;;;;14.58;100.00;100258.13;5051203;28;20404;-64
2022/10/24 00:36:25;;;;;;;10.85;3.33;;;;;;;14.60;100.00;100260.69;5067456;28;20739;-66
2022/10/24 00:38:51;;;;;;;9.55;3.60;;;;;;;14.63;100.00;100253.38;5067877;28;20024;-65
2022/10/24 00:41:28;;;;;;;13.95;3.67;;;;;;;14.60;100.00;100250.91;5067264;28;20028;-61
2022/10/24 00:44:12;;;;;;;8.48;3.17;;;;;;;14.63;100.00;100249.91;5068205;28;20127;-63
2022/10/24 00:46:40;;;;;;;9.07;3.28;;;;;;;14.65;100.00;100251.50;5050499;28;20021;-65
2022/10/24 00:49:11;;;;;;;8.77;3.42;;;;;;;14.71;100.00;100250.28;5050311;28;20028;-66
2022/10/24 00:51:37;;;;;;;12.55;3.55;;;;;;;14.76;100.00;100247.34;5050936;28;20016;-67
2022/10/24 00:54:05;;;;;;;10.35;3.33;;;;;;;14.74;100.00;100241.28;5067811;28;20446;-66
2022/10/24 00:56:53;;;;;;;9.53;3.30;;;;;;;14.73;100.00;100236.91;5050503;28;20543;-67
2022/10/24 00:59:18;;;;;;;8.05;3.17;;;;;;;14.75;100.00;100240.34;5067307;28;20291;-64
2022/10/24 01:01:44;;;;;;;12.10;3.10;;;;;;;14.71;100.00;100244.09;5050639;28;20048;-66
2022/10/24 01:04:13;;;;;;;10.60;3.33;;;;;;;14.77;100.00;100243.72;5066519;28;20084;-67
2022/10/24 01:06:53;;;;;;;12.27;3.17;;;;;;;14.78;100.00;100237.53;5067972;28;20031;-63
2022/10/24 01:09:31;;;;;;;6.40;2.38;;;;;;;14.80;100.00;100227.66;5181879;22;20049;-67
2022/10/24 01:12:07;;;;;;;5.90;2.60;;;;;;;14.85;100.00;100232.69;5010314;28;20105;-66
2022/10/24 01:14:52;;;;;;;9.93;2.70;;;;;;;14.89;100.00;100237.72;5010343;28;20036;-67
2022/10/24 01:17:30;;;;;;;9.18;2.80;;;;;;;14.97;100.00;100226.63;5010329;28;20030;-66
2022/10/24 01:20:14;;;;;;;9.40;2.58;;;;;;;15.02;100.00;100223.69;5027798;28;20029;-65
2022/10/24 01:23:20;;;;;;;12.20;2.42;;;;;;;15.08;100.00;100225.94;5028117;28;20026;-61
2022/10/24 01:25:58;;;;;;;6.72;2.30;;;;;;;15.15;100.00;100221.13;4983558;28;20372;-62
2022/10/24 01:28:31;;;;;;;10.75;2.83;;;;;;;15.25;100.00;100221.38;4992305;28;20051;-65
2022/10/24 01:31:09;;;;;;;8.15;2.53;;;;;;;15.34;100.00;100223.44;5009599;28;20040;-65
2022/10/24 01:33:41;;;;;;;8.35;1.95;;;;;;;15.40;100.00;100220.41;5026654;28;20108;-62
2022/10/24 01:36:13;;;;;;;9.50;2.38;;;;;;;15.46;100.00;100213.84;5009415;28;20036;-65
2022/10/24 01:38:53;;;;;;;6.90;1.98;;;;;;;15.50;100.00;100209.19;5027151;28;20104;-65
2022/10/24 01:41:21;;;;;;;8.80;2.03;;;;;;;15.54;100.00;100211.53;5009854;28;20091;-66
2022/10/24 01:44:06;;;;;;;7.53;2.00;;;;;;;15.56;100.00;100190.19;5009868;28;20040;-66
2022/10/24 01:46:34;;;;;;;7.40;2.22;;;;;;;15.53;100.00;100199.22;5028021;28;20044;-66
2022/10/24 01:49:08;;;;;;;9.77;2.17;;;;;;;15.51;100.00;100201.09;5008706;28;20053;-63
2022/10/24 01:51:34;;;;;;;11.82;2.25;;;;;;;15.45;100.00;100203.31;5009502;28;20087;-64
2022/10/24 01:54:00;;;;;;;5.10;2.25;;;;;;;15.43;100.00;100194.59;5008298;28;20026;-64
2022/10/24 01:56:26;;;;;;;8.48;2.25;;;;;;;15.34;100.00;100193.38;5027291;28;20804;-66
2022/10/24 01:58:51;;;;;;;9.40;2.22;;;;;;;15.28;100.00;100189.34;5027193;28;20025;-64
2022/10/24 02:01:21;;;;;;;7.95;1.80;;;;;;;15.25;100.00;100194.84;5027450;28;20476;-60
2022/10/24 02:03:49;;;;;;;7.32;1.90;;;;;;;15.23;100.00;100194.94;5009274;28;20021;-65
2022/10/24 02:06:19;;;;;;;6.65;1.83;;;;;;;15.22;100.00;100189.72;5026884;28;20035;-65
2022/10/24 02:08:50;;;;;;;10.00;1.80;;;;;;;15.23;100.00;100186.13;5025373;28;20083;-67
2022/10/24 02:11:16;;;;;;;5.82;2.10;;;;;;;15.27;100.00;100191.13;4992250;28;20075;-63
2022/10/24 02:14:03;;;;;;;5.47;1.83;;;;;;;15.28;100.00;100195.50;5026008;28;20017;-68
2022/10/24 02:16:29;;;;;;;5.43;1.80;;;;;;;15.32;100.00;100190.84;5027014;28;20032;-64
2022/10/24 02:18:55;;;;;;;8.07;1.80;;;;;;;15.30;100.00;100192.75;5026226;28;20100;-65
2022/10/24 02:21:28;;;;;;;6.63;1.52;;;;;;;15.25;100.00;100187.75;5009715;28;20120;-67
2022/10/24 02:24:24;;;;;;;9.02;1.85;;;;;;;15.26;100.00;100183.28;5025800;28;20037;-66
2022/10/24 02:27:06;;;;;;;4.72;1.50;;;;;;;15.32;100.00;100190.84;5023063;28;20644;-66
2022/10/24 02:29:36;;;;;;;9.95;1.40;;;;;;;15.33;100.00;100197.88;5009829;28;20026;-67
2022/10/24 02:32:05;;;;;;;8.30;1.58;;;;;;;15.38;100.00;100202.88;5009492;28;20028;-66
2022/10/24 02:34:32;;;;;;;7.82;1.85;;;;;;;15.44;100.00;100196.31;5009761;28;20080;-61
2022/10/24 02:36:58;;;;;;;5.15;1.95;;;;;;;15.48;100.00;100189.84;5025684;28;20079;-65
2022/10/24 02:39:24;;;;;;;6.72;1.85;;;;;;;15.51;100.00;100194.97;5025474;28;20434;-61
2022/10/24 02:41:51;;;;;;;9.18;1.60;;;;;;;15.53;100.00;100188.59;5007212;28;20049;-65
2022/10/24 02:44:18;;;;;;;8.13;1.52;;;;;;;15.60;100.00;100186.41;5009291;28;20029;-62
2022/10/24 02:46:44;;;;;;;7.75;1.85;;;;;;;15.60;100.00;100186.41;5007131;28;20014;-64
2022/10/24 02:49:10;;;;;;;11.55;2.22;;;;;;;15.60;100.00;100188.19;5008590;28;20084;-67
2022/10/24 02:51:38;;;;;;;8.48;2.75;;;;;;;15.60;100.00;100199.69;5024866;28;20033;-61
2022/10/24 02:54:04;;;;;;;12.25;1.80;;;;;;;15.58;100.00;100190.94;5008050;28;20034;-63
2022/10/24 02:56:30;;;;;;;6.22;1.77;;;;;;;15.54;100.00;100190.28;5025526;28;20027;-61
2022/10/24 02:58:55;;;;;;;4.97;1.40;;;;;;;15.57;100.00;100189.25;5008552;28;20109;-64
2022/10/24 03:01:21;;;;;;;7.60;1.42;;;;;;;15.59;100.00;100186.50;5025342;28;20690;-64
2022/10/24 03:03:46;;;;;;;7.63;1.63;;;;;;;15.60;100.00;100186.41;5025216;28;20025;-65
2022/10/24 03:06:12;;;;;;;4.47;1.40;;;;;;;15.64;100.00;100185.25;5008383;28;20112;-66
2022/10/24 03:08:37;;;;;;;7.63;1.88;;;;;;;15.58;100.00;100185.63;5025825;28;20137;-68
2022/10/24 03:11:03;;;;;;;7.60;1.67;;;;;;;15.53;100.00;100182.41;5026569;28;20025;-62
2022/10/24 03:13:28;;;;;;;11.65;1.75;;;;;;;15.51;100.00;100173.72;5009093;28;20061;-65
2022/10/24 03:15:53;;;;;;;12.57;1.65;;;;;;;15.47;100.00;100174.88;5008711;28;20943;-67
2022/10/24 03:18:19;;;;;;;7.55;1.38;;;;;;;15.49;100.00;100175.63;5026607;28;20038;-65
2022/10/24 03:20:45;;;;;;;4.90;1.58;;;;;;;15.51;100.00;100171.06;5026141;28;20515;-64
2022/10/24 03:23:11;;;;;;;9.40;1.35;;;;;;;15.46;100.00;100181.13;5023974;28;20029;-66
2022/10/24 03:25:36;;;;;;;2.40;1.20;;;;;;;15.44;100.00;100172.44;5026278;28;20029;-64
2022/10/24 03:28:01;;;;;;;4.40;1.50;;;;;;;15.46;100.00;100174.03;5025681;28;20490;-61
2022/10/24 03:30:27;;;;;;;6.82;1.80;;;;;;;15.41;100.00;100171.66;5025896;28;20036;-63
2022/10/24 03:32:52;;;;;;;12.45;1.80;;;;;;;15.40;100.00;100177.94;5029253;28;20112;-65
2022/10/24 03:35:17;;;;;;;11.20;1.58;;;;;;;15.37;100.00;100161.34;5029914;28;20043;-66
2022/10/24 03:37:43;;;;;;;5.72;1.73;;;;;;;15.36;100.00;100165.81;5028836;28;20017;-61
2022/10/24 03:40:09;;;;;;;6.05;2.15;;;;;;;15.31;100.00;100169.69;5029733;28;20029;-66
2022/10/24 03:42:34;;;;;;;9.30;1.70;;;;;;;15.36;100.00;100170.25;5029370;28;20026;-63
2022/10/24 03:45:00;;;;;;;7.60;1.95;;;;;;;15.41;100.00;100158.38;5029874;28;20040;-64
2022/10/24 03:47:25;;;;;;;13.30;1.88;;;;;;;15.48;100.00;100176.56;5010459;28;20467;-67
2022/10/24 03:49:51;;;;;;;7.97;1.23;;;;;;;15.53;100.00;100169.16;5029330;28;20033;-62
2022/10/24 03:52:16;;;;;;;5.38;1.58;;;;;;;15.58;100.00;100188.28;5028595;28;20028;-62
2022/10/24 03:54:41;;;;;;;8.77;1.60;;;;;;;15.65;99.83;100178.97;5027646;28;20080;-66
2022/10/24 03:57:08;;;;;;;7.28;1.67;;;;;;;15.68;99.73;100177.91;5028926;28;20113;-65
2022/10/24 03:59:34;;;;;;;10.52;2.13;;;;;;;15.77;99.28;100161.38;5029934;28;20025;-67
2022/10/24 04:02:01;;;;;;;12.88;1.85;;;;;;;15.79;98.79;100150.63;5029723;28;20056;-63
2022/10/24 04:04:26;;;;;;;13.18;1.48;;;;;;;15.83;98.54;100168.06;5028499;28;20018;-66
2022/10/24 04:06:52;;;;;;;12.38;1.73;;;;;;;15.82;99.03;100160.19;5029172;28;20045;-64
2022/10/24 04:09:17;;;;;;;7.68;1.70;;;;;;;15.87;99.25;100166.91;5027438;28;20076;-63
2022/10/24 04:11:43;;;;;;;6.35;1.35;;;;;;;15.90;99.08;100166.69;5029266;28;20025;-63
2022/10/24 04:14:08;;;;;;;8.23;1.63;;;;;;;15.85;98.78;100174.13;5027755;28;20029;-63
2022/10/24 04:16:34;;;;;;;4.30;1.33;;;;;;;15.90;98.23;100157.91;5028729;28;20021;-67
2022/10/24 04:18:59;;;;;;;10.13;1.60;;;;;;;15.90;98.32;100166.69;5029269;28;20026;-65
2022/10/24 04:21:25;;;;;;;6.57;1.33;;;;;;;15.94;98.16;100158.53;5028439;28;20064;-64
2022/10/24 04:23:50;;;;;;;13.10;2.78;;;;;;;15.99;98.72;100172.41;5028320;28;20035;-67
2022/10/24 04:26:16;;;;;;;7.50;1.45;;;;;;;15.96;98.62;100167.25;5028991;28;20026;-66
2022/10/24 04:28:42;;;;;;;10.63;1.50;;;;;;;15.98;99.28;100168.88;5028479;28;20044;-62
2022/10/24 04:31:08;;;;;;;12.85;2.15;;;;;;;15.97;98.84;100153.03;5028641;28;20033;-65
2022/10/24 04:33:35;;;;;;;8.20;1.70;;;;;;;16.02;98.76;100166.88;5028790;28;20029;-62
2022/10/24 04:36:00;;;;;;;10.68;1.52;;;;;;;16.01;98.77;100167.81;5027009;28;20029;-66
2022/10/24 04:38:26;;;;;;;7.22;1.95;;;;;;;16.06;98.93;100162.19;5027687;28;20067;-63
2022/10/24 04:40:52;;;;;;;10.15;1.52;;;;;;;16.04;99.00;100159.63;5010913;28;20484;-65
2022/10/24 04:43:19;;;;;;;8.52;1.33;;;;;;;16.10;98.68;100155.72;5009889;28;20033;-61
2022/10/24 04:45:44;;;;;;;8.75;1.80;;;;;;;16.17;98.61;100155.19;5028447;28;20083;-62
2022/10/24 04:48:09;;;;;;;7.32;1.50;;;;;;;16.15;98.73;100157.13;5028047;28;20029;-65
2022/10/24 04:50:35;;;;;;;9.48;1.85;;;;;;;16.13;97.96;100161.66;5028468;28;20112;-64
2022/10/24 04:53:00;;;;;;;7.20;1.58;;;;;;;16.15;97.87;100150.94;5026958;28;20064;-64
2022/10/24 04:55:26;;;;;;;11.25;1.90;;;;;;;16.15;97.76;100157.13;5025942;28;20057;-64
2022/10/24 04:57:51;;;;;;;9.18;1.73;;;;;;;16.15;96.96;100157.13;5027075;28;20021;-65
2022/10/24 05:00:17;;;;;;;11.20;2.13;;;;;;;16.20;97.50;100148.81;5026186;28;20026;-64
2022/10/24 05:02:42;;;;;;;12.02;2.17;;;;;;;16.21;97.62;100170.91;5027680;28;20079;-66
2022/10/24 05:05:07;;;;;;;7.00;1.38;;;;;;;16.22;97.30;100165.50;5027066;28;20033;-64
2022/10/24 05:07:33;;;;;;;9.23;1.60;;;;;;;16.20;97.87;100166.56;5025637;28;20055;-64
2022/10/24 05:09:58;;;;;;;10.75;1.65;;;;;;;16.15;97.67;100151.81;5027344;28;20120;-66
2022/10/24 05:12:23;;;;;;;7.53;1.42;;;;;;;16.12;97.87;100157.31;5027634;28;20024;-65
2022/10/24 05:14:49;;;;;;;10.95;1.90;;;;;;;16.10;98.45;100153.91;5027928;28;20026;-65
2022/10/24 05:17:14;;;;;;;10.57;1.70;;;;;;;16.07;98.56;100153.28;5027933;28;20029;-65
2022/10/24 05:19:39;;;;;;;13.80;1.63;;;;;;;16.04;98.22;100156.97;5027079;28;20037;-64
2022/10/24 05:22:05;;;;;;;12.32;2.25;;;;;;;16.01;98.29;100154.53;5024846;28;20061;-66
2022/10/24 05:24:30;;;;;;;7.40;1.52;;;;;;;16.03;97.86;100156.16;5025887;28;20108;-61
2022/10/24 05:26:55;;;;;;;6.10;1.17;;;;;;;16.00;98.58;100152.84;5008530;28;20053;-64
2022/10/24 05:29:21;;;;;;;9.05;1.77;;;;;;;15.99;98.77;100149.34;5025631;28;20064;-63
2022/10/24 05:31:46;;;;;;;8.15;1.58;;;;;;;15.95;98.81;100154.94;5026249;28;20212;-64
2022/10/24 05:34:11;;;;;;;8.35;1.52;;;;;;;15.87;99.71;100163.41;5025683;28;20483;-61
2022/10/24 05:36:37;;;;;;;11.18;2.30;;;;;;;15.73;100.00;100161.66;5025395;28;20456;-64
2022/10/24 05:39:02;;;;;;;8.57;1.80;;;;;;;15.76;100.00;100161.47;5026437;28;20029;-65
2022/10/24 05:41:28;;;;;;;6.95;1.50;;;;;;;15.73;100.00;100154.56;5026343;28;20487;-64
2022/10/24 05:43:53;;;;;;;7.55;1.83;;;;;;;15.62;100.00;100159.75;5026518;28;20148;-64
2022/10/24 05:46:18;;;;;;;7.28;1.70;;;;;;;15.64;100.00;100148.06;5026162;28;20365;-62
2022/10/24 05:48:44;;;;;;;12.35;1.80;;;;;;;15.62;100.00;100157.94;5024983;28;20029;-63
2022/10/24 05:51:09;;;;;;;3.70;1.35;;;;;;;15.62;100.00;100165.91;5026084;28;20205;-64
2022/10/24 05:53:35;;;;;;;9.55;2.15;;;;;;;15.63;100.00;100156.13;5022678;28;20479;-62
2022/10/24 05:56:00;;;;;;;17.80;1.98;;;;;;;15.64;100.00;100149.84;5026310;28;20022;-67
2022/10/24 05:58:26;;;;;;;6.25;1.60;;;;;;;15.71;100.00;100171.56;5025362;28;20641;-64
2022/10/24 06:00:51;;;;;;;9.65;1.75;;;;;;;15.78;100.00;100146.28;5024727;28;20024;-65
2022/10/24 06:03:17;;;;;;;8.75;1.52;;;;;;;15.81;100.00;100148.75;5025527;28;20491;-65
2022/10/24 06:05:42;;;;;;;8.10;1.55;;;;;;;15.84;100.00;100147.69;5025477;28;20035;-65
2022/10/24 06:08:08;;;;;;;8.40;1.58;;;;;;;15.75;100.00;100155.28;5024938;28;20468;-61
2022/10/24 06:10:34;;;;;;;9.90;2.00;;;;;;;15.75;100.00;100162.44;5024751;28;20043;-65
2022/10/24 06:12:59;;;;;;;12.45;1.70;;;;;;;15.76;100.00;100166.78;5022126;28;20018;-66
2022/10/24 06:15:25;;;;;;;13.65;1.67;;;;;;;15.84;100.00;100175.09;5015490;28;20399;-61
2022/10/24 06:17:50;;;;;;;9.00;1.70;;;;;;;15.91;100.00;100186.16;5024866;28;20476;-62
2022/10/24 06:20:15;;;;;;;6.28;1.77;;;;;;;15.89;100.00;100167.66;5019893;28;20184;-64
2022/10/24 06:22:43;;;;;;;10.07;2.00;;;;;;;15.91;100.00;100168.41;5015301;28;20026;-63
2022/10/24 06:25:09;;;;;;;10.40;2.03;;;;;;;15.93;99.77;100189.56;5020261;28;20029;-62
2022/10/24 06:27:35;;;;;;;12.27;2.03;;;;;;;15.95;99.38;100182.34;5025844;28;20443;-66
2022/10/24 06:30:00;;;;;;;9.52;1.77;;;;;;;15.94;99.96;100182.44;5026110;28;20033;-64
2022/10/24 06:32:25;;;;;;;7.68;1.60;;;;;;;15.97;99.92;100200.88;5025941;28;20026;-64
2022/10/24 06:34:51;;;;;;;10.15;1.92;;;;;;;15.91;100.00;100205.63;4997027;28;20469;-64
2022/10/24 06:37:16;;;;;;;9.52;1.75;;;;;;;15.96;100.00;100210.66;5012316;28;20028;-63
2022/10/24 06:39:42;;;;;;;6.50;1.33;;;;;;;15.98;99.20;100218.53;5025599;28;20452;-61
2022/10/24 06:42:07;;;;;;;10.15;1.88;;;;;;;16.13;98.88;100221.94;5023814;28;20147;-65
2022/10/24 06:44:32;;;;;;;10.63;1.70;;;;;;;16.15;98.72;100199.63;5024786;28;20522;-65
2022/10/24 06:46:58;;;;;;;11.43;2.08;;;;;;;16.18;98.67;100222.50;5026344;28;20037;-65
2022/10/24 06:49:23;;;;;;;7.82;1.98;;;;;;;16.19;98.46;100237.47;5026057;28;20052;-61
2022/10/24 06:51:49;;;;;;;7.82;2.13;;;;;;;16.15;98.95;100231.53;5025760;28;20415;-67
2022/10/24 06:54:15;;;;;;;11.57;1.42;;;;;;;16.12;98.68;100225.56;5025122;28;20108;-65
2022/10/24 06:56:40;;;;;;;9.90;1.88;;;;;;;16.15;98.27;100236.84;5026420;28;20091;-66
2022/10/24 06:59:10;;;;;;;7.25;1.60;;;;;;;16.13;97.96;100249.38;5026250;28;20429;-66
2022/10/24 07:01:36;;;;;;;10.90;1.90;;;;;;;16.16;97.82;100245.66;5026810;28;20032;-63
2022/10/24 07:04:01;;;;;;;7.90;1.50;;;;;;;16.20;97.88;100256.94;5026297;28;20025;-61
2022/10/24 07:06:28;;;;;;;14.63;1.63;;;;;;;16.17;98.92;100265.97;5026026;28;20060;-65
2022/10/24 07:08:55;;;;;;;9.30;2.08;;;;;;;16.06;98.84;100273.78;5007381;28;20131;-66
2022/10/24 07:11:20;;;;;;;11.63;1.73;;;;;;;16.14;98.00;100264.34;5009417;28;20042;-64
2022/10/24 07:13:45;;;;;;;10.32;1.73;;;;;;;16.13;97.80;100267.97;5008449;28;20297;-61
2022/10/24 07:16:11;;;;;;;7.55;1.70;;;;;;;16.13;98.07;100275.94;5008776;28;20034;-64
2022/10/24 07:18:36;;;;;;;10.40;1.60;;;;;;;16.17;97.74;100260.66;5009025;28;20417;-68
2022/10/24 07:21:13;;;;;;;6.57;1.52;;;;;;;16.28;97.77;100278.53;5009542;28;20022;-67
2022/10/24 07:23:38;;;;;;;8.55;1.52;;;;;;;16.26;97.40;100291.91;5008094;28;20369;-64
2022/10/24 07:26:06;;;;;;;8.70;1.77;;;;;;;16.24;97.70;100303.63;5009037;28;20083;-63
2022/10/24 07:28:32;;;;;;;12.60;1.63;;;;;;;16.27;97.61;100300.75;5009074;28;20022;-62
2022/10/24 07:30:58;;;;;;;10.85;1.90;;;;;;;16.20;98.97;100308.31;5008722;28;20477;-63
2022/10/24 07:33:24;;;;;;;12.43;1.70;;;;;;;16.27;98.79;100314.06;5007146;28;20101;-63
2022/10/24 07:35:49;;;;;;;13.63;1.77;;;;;;;16.29;98.44;100320.13;5008189;28;20557;-65
2022/10/24 07:38:14;;;;;;;9.57;1.65;;;;;;;16.14;99.49;100346.75;5007754;28;20033;-66
2022/10/24 07:40:40;;;;;;;11.98;1.60;;;;;;;16.12;100.00;100321.22;5008293;28;20058;-63
2022/10/24 07:43:05;;;;;;;8.70;1.90;;;;;;;16.06;100.00;100326.94;5008029;28;20041;-62
2022/10/24 07:45:31;;;;;;;7.90;1.85;;;;;;;16.04;99.86;100324.38;5008342;28;20037;-64
2022/10/24 07:47:58;;;;;;;12.68;1.73;;;;;;;15.98;100.00;100348.72;5007229;28;20113;-65
2022/10/24 07:50:23;;;;;;;9.27;1.85;;;;;;;15.92;100.00;100326.88;5006982;28;20033;-63
2022/10/24 07:52:49;;;;;;;5.95;1.67;;;;;;;15.86;100.00;100339.72;4994254;28;20478;-69
2022/10/24 07:55:14;;;;;;;9.38;1.73;;;;;;;15.99;100.00;100342.44;5008178;28;20032;-61
2022/10/24 07:57:39;;;;;;;7.47;1.52;;;;;;;16.04;99.84;100343.84;5007753;28;20022;-61
2022/10/24 08:00:05;;;;;;;8.32;1.55;;;;;;;16.07;99.95;100340.13;5007415;28;20056;-63
2022/10/24 08:02:31;;;;;;;7.50;1.60;;;;;;;16.14;99.06;100365.34;5008524;28;20025;-60
2022/10/24 08:04:57;;;;;;;7.50;1.35;;;;;;;16.33;97.70;100350.00;5008285;28;20034;-67
2022/10/24 08:07:22;;;;;;;11.85;1.88;;;;;;;16.45;97.97;100369.59;5006844;28;20033;-63
2022/10/24 08:09:50;;;;;;;6.65;1.55;;;;;;;16.58;97.34;100365.16;5025075;28;20136;-62
2022/10/24 08:12:15;;;;;;;6.25;1.52;;;;;;;16.54;97.24;100387.63;5028795;28;20111;-60
2022/10/24 08:14:41;;;;;;;7.97;1.60;;;;;;;16.70;97.03;100381.28;5027673;28;20432;-65
2022/10/24 08:17:07;;;;;;;7.82;1.70;;;;;;;16.72;96.78;100387.34;5027160;28;20032;-62
2022/10/24 08:19:33;;;;;;;9.95;2.00;;;;;;;16.77;97.21;100385.22;5027648;28;20048;-64
2022/10/24 08:21:59;;;;;;;7.13;1.27;;;;;;;16.62;98.07;100425.19;5009048;28;20057;-68
2022/10/24 08:24:24;;;;;;;7.78;1.40;;;;;;;16.60;98.91;100384.56;5028092;28;20108;-63
2022/10/24 08:26:50;;;;;;;9.88;1.60;;;;;;;16.52;99.85;100393.03;5027465;28;20476;-66
2022/10/24 08:29:21;;;;;;;6.88;1.45;;;;;;;16.45;100.00;100407.69;5027970;28;20022;-65
2022/10/24 08:31:51;;;;;;;7.60;1.63;;;;;;;16.29;100.00;100387.41;5029104;28;20095;-58
2022/10/24 08:34:17;;;;;;;13.48;2.05;;;;;;;16.27;100.00;100420.38;5028209;28;20091;-64
2022/10/24 08:36:42;;;;;;;9.88;1.77;;;;;;;16.21;100.00;100404.81;5028139;28;20033;-64
2022/10/24 08:39:08;;;;;;;8.43;1.98;;;;;;;16.10;100.00;100416.16;5025762;28;20025;-66
2022/10/24 08:42:03;;;;;;;6.63;1.60;;;;;;;16.07;100.00;100397.75;5029169;28;20044;-63
2022/10/24 08:44:36;;;;;;;6.30;1.63;;;;;;;15.91;100.00;100404.88;4997184;28;20056;-63
2022/10/24 08:47:11;;;;;;;10.45;1.67;;;;;;;15.81;100.00;100409.06;5010104;28;20391;-62
2022/10/24 08:49:44;;;;;;;9.10;1.60;;;;;;;15.58;100.00;100424.63;5026811;28;20044;-65
2022/10/24 08:52:31;;;;;;;8.15;1.65;;;;;;;15.44;100.00;100414.84;5008783;28;20403;-62
2022/10/24 08:54:58;;;;;;;5.15;1.50;;;;;;;15.49;100.00;100436.66;5026090;28;20029;-63
2022/10/24 08:57:27;;;;;;;8.65;1.80;;;;;;;15.54;100.00;100439.88;5006825;28;20029;-61
2022/10/24 08:59:55;;;;;;;7.65;1.48;;;;;;;15.51;100.00;100440.06;5008980;28;20024;-62
2022/10/24 09:02:25;;;;;;;9.25;1.50;;;;;;;15.54;100.00;100441.69;5014591;28;20488;-63
2022/10/24 09:04:56;;;;;;;8.00;1.88;;;;;;;15.58;100.00;100451.19;5025790;28;20029;-62
2022/10/24 09:07:22;;;;;;;6.50;1.50;;;;;;;15.44;100.00;100453.84;5007012;28;20033;-61
2022/10/24 09:09:50;;;;;;;8.30;1.83;;;;;;;15.45;100.00;100455.53;5008428;28;20037;-66
2022/10/24 09:12:18;;;;;;;8.40;1.67;;;;;;;15.53;100.00;100446.16;5008806;28;20043;-64
2022/10/24 09:14:46;;;;;;;5.88;1.60;;;;;;;15.55;100.00;100456.69;5008804;28;20029;-66
2022/10/24 09:17:23;;;;;;;10.17;1.43;;;;;;;15.51;100.00;100445.38;5025867;28;20471;-62
2022/10/24 09:19:54;;;;;;;6.00;1.52;;;;;;;15.68;100.00;100463.91;5026290;28;20515;-64
2022/10/24 09:22:22;;;;;;;9.43;1.42;;;;;;;15.86;100.00;100459.25;5026140;28;20026;-62
2022/10/24 09:25:12;;;;;;;6.55;1.83;;;;;;;16.04;100.00;100467.88;5009455;28;20083;-63
2022/10/24 09:27:39;;;;;;;10.57;1.90;;;;;;;15.96;100.00;100475.47;5008699;28;20452;-66
2022/10/24 09:30:07;;;;;;;10.52;2.15;;;;;;;16.06;100.00;100476.63;5008636;28;20021;-60
2022/10/24 09:32:34;;;;;;;7.22;1.75;;;;;;;16.17;100.00;100482.09;5009846;28;20029;-61
2022/10/24 09:35:06;;;;;;;8.48;1.83;;;;;;;16.01;100.00;100476.03;5027376;28;20049;-63
2022/10/24 09:37:41;;;;;;;9.05;1.85;;;;;;;16.02;100.00;100496.38;5026470;28;20030;-61
2022/10/24 09:40:19;;;;;;;13.05;1.92;;;;;;;16.08;100.00;100489.81;5023997;28;20038;-63
2022/10/24 09:43:10;;;;;;;8.52;2.03;;;;;;;16.04;100.00;100484.69;5026156;28;20014;-66
2022/10/24 09:45:48;;;;;;;11.30;2.10;;;;;;;16.04;100.00;100487.34;5023060;28;20033;-61
2022/10/24 09:48:18;;;;;;;10.38;2.00;;;;;;;16.08;100.00;100495.13;5023702;28;20124;-64
2022/10/24 09:50:44;;;;;;;9.20;1.67;;;;;;;15.93;100.00;100503.09;5008049;28;20411;-63
2022/10/24 09:53:33;;;;;;;8.02;1.67;;;;;;;15.98;100.00;100516.13;5007020;28;20052;-65
2022/10/24 09:56:06;;;;;;;8.23;1.80;;;;;;;16.00;100.00;100520.38;5025544;28;20033;-64
2022/10/24 09:58:32;;;;;;;8.88;1.83;;;;;;;16.10;100.00;100515.34;5026035;28;20072;-66
2022/10/24 10:01:06;;;;;;;8.88;1.80;;;;;;;16.26;100.00;100531.16;5025601;28;20048;-62
2022/10/24 10:03:33;;;;;;;11.63;1.88;;;;;;;16.30;100.00;100521.19;5024283;28;20021;-62
2022/10/24 10:06:05;;;;;;;12.10;1.73;;;;;;;16.44;100.00;100541.59;5027177;28;20029;-64
2022/10/24 10:08:32;;;;;;;5.70;1.85;;;;;;;16.48;100.00;100550.22;5006215;28;20056;-62
2022/10/24 10:11:02;;;;;;;10.15;2.42;;;;;;;16.61;100.00;100537.84;5025388;28;20282;-62
2022/10/24 10:13:28;;;;;;;5.15;1.33;;;;;;;16.73;100.00;100543.31;5005907;28;20025;-63
2022/10/24 10:15:57;;;;;;;7.30;1.52;;;;;;;16.90;100.00;100540.44;5009383;28;20369;-64
2022/10/24 10:18:25;;;;;;;;;;;;;;;17.02;100.00;100546.75;5009412;28;20082;-64
2022/10/24 10:20:58;;;;;;;11.60;2.03;;;;;;;17.14;100.00;100552.25;5025506;28;19913;-62
2022/10/24 10:23:54;;;;;;;10.02;2.08;;;;;;;17.46;100.00;100567.03;5026026;28;20159;-63
2022/10/24 10:26:41;;;;;;;7.05;1.85;;;;;;;17.60;99.24;100566.94;5026714;28;20029;-61
2022/10/24 10:29:16;;;;;;;7.15;1.50;;;;;;;17.52;99.13;100583.44;5026365;28;20379;-64
2022/10/24 10:31:43;;;;;;;3.60;1.40;;;;;;;17.44;99.24;100575.13;5024997;28;20121;-65
2022/10/24 10:34:30;;;;;;;7.30;1.40;;;;;;;17.29;99.79;100577.88;5025333;28;20022;-67
2022/10/24 10:37:22;;;;;;;14.02;2.35;;;;;;;17.09;100.00;100589.81;5024891;28;20388;-64
2022/10/24 10:40:18;;;;;;;8.82;1.52;;;;;;;17.11;100.00;100595.91;4991156;28;20510;-63
2022/10/24 10:43:05;;;;;;;9.57;1.50;;;;;;;17.14;100.00;100598.38;5027675;28;20025;-63
2022/10/24 10:45:45;;;;;;;11.48;1.65;;;;;;;16.98;100.00;100608.28;5029758;28;20041;-63
2022/10/24 10:48:17;;;;;;;7.93;1.67;;;;;;;16.66;100.00;100607.59;5028418;28;20029;-62
2022/10/24 10:51:02;;;;;;;8.02;1.80;;;;;;;16.56;100.00;100611.78;5028943;28;20487;-62
2022/10/24 10:53:37;;;;;;;6.68;1.30;;;;;;;16.30;100.00;100616.91;5027687;28;20502;-63
2022/10/24 10:56:31;;;;;;;3.20;1.25;;;;;;;16.19;100.00;100619.38;5029106;28;20514;-68
2022/10/24 10:59:15;;;;;;;8.15;1.30;;;;;;;16.08;100.00;100612.94;5011714;28;20037;-63
2022/10/24 11:01:52;;;;;;;3.85;1.25;;;;;;;15.92;100.00;100611.16;5029945;28;20030;-66
2022/10/24 11:04:36;;;;;;;9.25;1.50;;;;;;;15.84;100.00;100621.41;5030245;28;20079;-62
2022/10/24 11:07:02;;;;;;;6.18;1.45;;;;;;;15.67;100.00;100627.69;5029432;28;20108;-61
2022/10/24 11:09:32;;;;;;;4.07;1.30;;;;;;;15.61;100.00;100628.06;5012025;28;20567;-63
2022/10/24 11:12:24;;;;;;;1.67;1.02;;;;;;;15.78;100.00;100627.91;5029777;28;20387;-66
2022/10/24 11:14:54;;;;;;;4.65;1.42;;;;;;;15.81;100.00;100634.88;5025762;28;20053;-64
2022/10/24 11:17:25;;;;;;;6.72;1.58;;;;;;;15.83;100.00;100616.19;5011841;28;20089;-64
2022/10/24 11:20:08;;;;;;;10.23;1.83;;;;;;;16.03;100.00;100630.94;5007206;28;20013;-62
2022/10/24 11:22:39;;;;;;;5.10;1.65;;;;;;;16.28;100.00;100653.34;5011698;28;20051;-63
2022/10/24 11:25:14;;;;;;;6.55;1.50;;;;;;;16.48;100.00;100632.66;5010978;28;20446;-65
2022/10/24 11:27:43;;;;;;;6.90;1.85;;;;;;;16.62;100.00;100642.44;5010605;28;20029;-65